createdAt,value
2018-04-19T00:00:09.423Z,0
2018-04-19T00:01:09.408Z,0
2018-04-19T00:02:09.389Z,0
2018-04-19T00:03:09.377Z,0
2018-04-19T00:04:09.370Z,0
2018-04-19T00:05:09.371Z,0
2018-04-19T00:06:09.344Z,0
2018-04-19T00:07:09.598Z,0
2018-04-19T00:08:09.319Z,0
2018-04-19T00:09:09.306Z,0
2018-04-19T00:10:09.025Z,0
2018-04-19T00:11:09.556Z,0
2018-04-19T00:12:09.274Z,0
2018-04-19T00:13:08.992Z,0
2018-04-19T00:14:09.511Z,0
2018-04-19T00:15:08.967Z,0
2018-04-19T00:16:09.488Z,0
2018-04-19T00:17:08.673Z,0
2018-04-19T00:18:09.192Z,0
2018-04-19T00:19:09.444Z,0
2018-04-19T00:20:08.898Z,0
2018-04-19T00:21:08.894Z,0
2018-04-19T00:22:08.872Z,0
2018-04-19T00:23:08.601Z,0
2018-04-19T00:24:09.129Z,0
2018-04-19T00:25:08.841Z,0
2018-04-19T00:26:09.092Z,0
2018-04-19T00:27:08.814Z,0
2018-04-19T00:28:08.803Z,0
2018-04-19T00:29:09.328Z,0
2018-04-19T00:30:09.319Z,0
2018-04-19T00:31:08.763Z,0
2018-04-19T00:32:09.013Z,0
2018-04-19T00:33:08.743Z,0
2018-04-19T00:34:08.460Z,0
2018-04-19T00:35:08.990Z,0
2018-04-19T00:36:08.704Z,0
2018-04-19T00:37:08.695Z,0
2018-04-19T00:38:08.688Z,0
2018-04-19T00:39:08.672Z,0
2018-04-19T00:40:08.915Z,0
2018-04-19T00:41:09.190Z,0
2018-04-19T00:42:08.893Z,0
2018-04-19T00:43:09.144Z,0
2018-04-19T00:44:08.874Z,0
2018-04-19T00:45:08.582Z,0
2018-04-19T00:46:08.572Z,0
2018-04-19T00:47:08.833Z,0
2018-04-19T00:48:08.563Z,0
2018-04-19T00:49:08.533Z,0
2018-04-19T00:50:08.801Z,0
2018-04-19T00:51:08.521Z,0
2018-04-19T00:52:08.502Z,0
2018-04-19T00:53:08.215Z,0
2018-04-19T00:54:09.004Z,0
2018-04-19T00:55:08.725Z,0
2018-04-19T00:56:08.979Z,0
2018-04-19T00:57:08.437Z,0
2018-04-19T00:58:08.685Z,0
2018-04-19T00:59:08.147Z,0
2018-04-19T01:00:08.661Z,0
2018-04-19T01:01:08.117Z,0
2018-04-19T01:02:08.097Z,0
2018-04-19T01:03:08.357Z,0
2018-04-19T01:04:08.076Z,0
2018-04-19T01:05:08.330Z,0
2018-04-19T01:06:08.589Z,0
2018-04-19T01:07:08.585Z,0
2018-04-19T01:08:08.294Z,0
2018-04-19T01:09:08.549Z,0
2018-04-19T01:10:08.801Z,0
2018-04-19T01:11:07.992Z,0
2018-04-19T01:12:08.238Z,0
2018-04-19T01:13:08.766Z,0
2018-04-19T01:14:08.752Z,0
2018-04-19T01:15:08.470Z,0
2018-04-19T01:16:08.200Z,0
2018-04-19T01:17:08.436Z,0
2018-04-19T01:18:08.429Z,0
2018-04-19T01:19:08.174Z,0
2018-04-19T01:20:08.408Z,0
2018-04-19T01:21:08.658Z,0
2018-04-19T01:22:08.375Z,0
2018-04-19T01:23:08.102Z,0
2018-04-19T01:24:08.616Z,0
2018-04-19T01:25:08.073Z,0
2018-04-19T01:26:08.328Z,0
2018-04-19T01:27:07.778Z,0
2018-04-19T01:28:08.560Z,0
2018-04-19T01:29:08.287Z,0
2018-04-19T01:30:08.022Z,0
2018-04-19T01:31:08.000Z,0
2018-04-19T01:32:08.243Z,0
2018-04-19T01:33:08.233Z,0
2018-04-19T01:34:07.950Z,0
2018-04-19T01:35:08.526Z,0
2018-04-19T01:36:07.924Z,0
2018-04-19T01:37:08.442Z,0
2018-04-19T01:38:08.166Z,0
2018-04-19T01:39:08.152Z,0
2018-04-19T01:40:08.436Z,0
2018-04-19T01:41:08.399Z,0
2018-04-19T01:42:07.856Z,0
2018-04-19T01:43:08.099Z,0
2018-04-19T01:44:07.837Z,0
2018-04-19T01:45:07.805Z,0
2018-04-19T01:46:08.066Z,0
2018-04-19T01:47:07.785Z,0
2018-04-19T01:48:07.773Z,0
2018-04-19T01:49:07.753Z,0
2018-04-19T01:50:07.483Z,0
2018-04-19T01:51:07.728Z,0
2018-04-19T01:52:08.260Z,0
2018-04-19T01:53:07.705Z,0
2018-04-19T01:54:07.960Z,0
2018-04-19T01:55:07.957Z,0
2018-04-19T01:56:07.665Z,0
2018-04-19T01:57:07.655Z,0
2018-04-19T01:58:07.908Z,0
2018-04-19T01:59:07.891Z,0
2018-04-19T02:00:07.345Z,0
2018-04-19T02:01:07.864Z,0
2018-04-19T02:02:08.127Z,0
2018-04-19T02:03:07.834Z,0
2018-04-19T02:04:07.557Z,0
2018-04-19T02:05:07.806Z,0
2018-04-19T02:06:07.805Z,0
2018-04-19T02:07:07.557Z,0
2018-04-19T02:08:07.503Z,0
2018-04-19T02:09:07.754Z,0
2018-04-19T02:10:07.211Z,0
2018-04-19T02:11:07.730Z,0
2018-04-19T02:12:07.989Z,0
2018-04-19T02:13:07.437Z,0
2018-04-19T02:14:07.692Z,0
2018-04-19T02:15:07.685Z,0
2018-04-19T02:16:07.931Z,0
2018-04-19T02:17:07.384Z,0
2018-04-19T02:18:07.108Z,0
2018-04-19T02:19:07.360Z,0
2018-04-19T02:20:07.344Z,0
2018-04-19T02:21:07.872Z,0
2018-04-19T02:22:07.851Z,0
2018-04-19T02:23:07.622Z,0
2018-04-19T02:24:07.560Z,0
2018-04-19T02:25:07.291Z,0
2018-04-19T02:26:07.265Z,0
2018-04-19T02:27:07.517Z,0
2018-04-19T02:28:07.235Z,0
2018-04-19T02:29:07.491Z,0
2018-04-19T02:30:07.218Z,0
2018-04-19T02:31:07.489Z,0
2018-04-19T02:32:07.195Z,0
2018-04-19T02:33:07.185Z,0
2018-04-19T02:34:07.173Z,0
2018-04-19T02:35:07.423Z,0
2018-04-19T02:36:07.132Z,0
2018-04-19T02:37:07.911Z,0
2018-04-19T02:38:07.383Z,0
2018-04-19T02:39:07.366Z,0
2018-04-19T02:40:07.638Z,0
2018-04-19T02:41:07.342Z,0
2018-04-19T02:42:07.322Z,0
2018-04-19T02:43:07.618Z,0
2018-04-19T02:44:07.298Z,0
2018-04-19T02:45:07.283Z,0
2018-04-19T02:46:06.733Z,0
2018-04-19T02:47:07.513Z,0
2018-04-19T02:48:06.982Z,0
2018-04-19T02:49:07.473Z,0
2018-04-19T02:50:06.959Z,0
2018-04-19T02:51:06.669Z,0
2018-04-19T02:52:07.461Z,0
2018-04-19T02:53:07.181Z,0
2018-04-19T02:54:06.941Z,0
2018-04-19T02:55:06.887Z,0
2018-04-19T02:56:06.870Z,0
2018-04-19T02:57:07.112Z,0
2018-04-19T02:58:07.106Z,0
2018-04-19T02:59:07.100Z,0
2018-04-19T03:00:06.819Z,0
2018-04-19T03:01:06.807Z,0
2018-04-19T03:02:06.524Z,0
2018-04-19T03:03:07.038Z,0
2018-04-19T03:04:07.033Z,0
2018-04-19T03:05:07.069Z,0
2018-04-19T03:06:06.737Z,0
2018-04-19T03:07:06.733Z,0
2018-04-19T03:08:06.983Z,0
2018-04-19T03:09:06.686Z,0
2018-04-19T03:10:07.219Z,0
2018-04-19T03:11:06.685Z,0
2018-04-19T03:12:06.929Z,0
2018-04-19T03:13:07.188Z,0
2018-04-19T03:14:06.897Z,0
2018-04-19T03:15:06.869Z,0
2018-04-19T03:16:07.129Z,0
2018-04-19T03:17:07.122Z,0
2018-04-19T03:18:06.572Z,0
2018-04-19T03:19:06.823Z,0
2018-04-19T03:20:06.821Z,0
2018-04-19T03:21:06.800Z,0
2018-04-19T03:22:06.782Z,0
2018-04-19T03:23:07.029Z,0
2018-04-19T03:24:06.494Z,0
2018-04-19T03:25:06.476Z,0
2018-04-19T03:26:06.463Z,0
2018-04-19T03:27:06.707Z,0
2018-04-19T03:28:06.438Z,0
2018-04-19T03:29:06.507Z,0
2018-04-19T03:30:06.682Z,0
2018-04-19T03:31:06.944Z,0
2018-04-19T03:32:06.904Z,0
2018-04-19T03:33:06.412Z,0
2018-04-19T03:34:06.350Z,0
2018-04-19T03:35:06.342Z,0
2018-04-19T03:36:06.598Z,0
2018-04-19T03:37:06.309Z,0
2018-04-19T03:38:06.572Z,0
2018-04-19T03:39:06.546Z,0
2018-04-19T03:40:06.551Z,0
2018-04-19T03:41:06.516Z,0
2018-04-19T03:42:06.777Z,0
2018-04-19T03:43:06.224Z,0
2018-04-19T03:44:06.477Z,0
2018-04-19T03:45:05.935Z,0
2018-04-19T03:46:06.193Z,0
2018-04-19T03:47:06.437Z,0
2018-04-19T03:48:06.423Z,0
2018-04-19T03:49:06.415Z,0
2018-04-19T03:50:06.138Z,0
2018-04-19T03:51:06.652Z,0
2018-04-19T03:52:06.105Z,0
2018-04-19T03:53:06.352Z,0
2018-04-19T03:54:06.091Z,0
2018-04-19T03:55:06.069Z,4
2018-04-19T03:56:06.306Z,4
2018-04-19T03:57:06.036Z,0
2018-04-19T03:58:06.020Z,0
2018-04-19T03:59:06.000Z,4
2018-04-19T04:00:06.521Z,4
2018-04-19T04:01:06.425Z,4
2018-04-19T04:02:06.503Z,8
2018-04-19T04:03:05.691Z,8
2018-04-19T04:04:05.935Z,8
2018-04-19T04:05:05.927Z,8
2018-04-19T04:06:06.177Z,8
2018-04-19T04:07:05.905Z,12
2018-04-19T04:08:05.878Z,16
2018-04-19T04:09:06.136Z,16
2018-04-19T04:10:05.863Z,20
2018-04-19T04:11:05.838Z,24
2018-04-19T04:12:06.389Z,28
2018-04-19T04:13:05.546Z,32
2018-04-19T04:14:06.063Z,36
2018-04-19T04:15:06.067Z,40
2018-04-19T04:16:05.771Z,48
2018-04-19T04:17:06.278Z,56
2018-04-19T04:18:06.040Z,64
2018-04-19T04:19:05.733Z,72
2018-04-19T04:20:05.719Z,80
2018-04-19T04:21:05.967Z,92
2018-04-19T04:22:05.971Z,104
2018-04-19T04:23:06.206Z,112
2018-04-19T04:24:06.199Z,128
2018-04-19T04:25:06.169Z,136
2018-04-19T04:26:05.896Z,152
2018-04-19T04:27:05.673Z,168
2018-04-19T04:28:06.130Z,180
2018-04-19T04:29:05.855Z,200
2018-04-19T04:30:06.129Z,216
2018-04-19T04:31:05.963Z,232
2018-04-19T04:32:05.546Z,248
2018-04-19T04:33:05.803Z,272
2018-04-19T04:34:05.779Z,288
2018-04-19T04:35:05.771Z,308
2018-04-19T04:36:05.225Z,328
2018-04-19T04:37:05.681Z,348
2018-04-19T04:38:05.738Z,372
2018-04-19T04:39:05.719Z,392
2018-04-19T04:40:05.438Z,420
2018-04-19T04:41:05.953Z,440
2018-04-19T04:42:05.671Z,464
2018-04-19T04:43:05.403Z,488
2018-04-19T04:44:05.643Z,512
2018-04-19T04:45:05.639Z,536
2018-04-19T04:46:05.623Z,560
2018-04-19T04:47:05.872Z,584
2018-04-19T04:48:05.596Z,608
2018-04-19T04:49:05.575Z,632
2018-04-19T04:50:05.571Z,660
2018-04-19T04:51:05.276Z,680
2018-04-19T04:52:05.540Z,704
2018-04-19T04:53:05.510Z,732
2018-04-19T04:54:05.971Z,752
2018-04-19T04:55:05.219Z,776
2018-04-19T04:56:05.743Z,804
2018-04-19T04:57:05.189Z,828
2018-04-19T04:58:05.440Z,852
2018-04-19T04:59:05.164Z,872
2018-04-19T05:00:05.454Z,900
2018-04-19T05:01:05.401Z,920
2018-04-19T05:02:05.387Z,944
2018-04-19T05:03:05.640Z,968
2018-04-19T05:04:05.359Z,988
2018-04-19T05:05:05.093Z,1008
2018-04-19T05:06:05.070Z,1032
2018-04-19T05:07:05.058Z,1056
2018-04-19T05:08:05.573Z,1076
2018-04-19T05:09:05.285Z,1096
2018-04-19T05:10:05.591Z,1120
2018-04-19T05:11:04.730Z,1140
2018-04-19T05:12:05.270Z,1160
2018-04-19T05:13:04.971Z,1180
2018-04-19T05:14:05.492Z,1200
2018-04-19T05:15:04.942Z,1220
2018-04-19T05:16:04.662Z,1236
2018-04-19T05:17:04.905Z,1260
2018-04-19T05:18:05.416Z,1280
2018-04-19T05:19:05.144Z,1300
2018-04-19T05:20:04.866Z,1320
2018-04-19T05:21:04.591Z,1336
2018-04-19T05:22:04.586Z,1356
2018-04-19T05:23:05.098Z,1372
2018-04-19T05:24:05.338Z,1392
2018-04-19T05:25:04.575Z,1408
2018-04-19T05:26:04.785Z,1424
2018-04-19T05:27:04.770Z,1444
2018-04-19T05:28:04.751Z,1464
2018-04-19T05:29:05.271Z,1476
2018-04-19T05:30:04.995Z,1496
2018-04-19T05:31:04.975Z,1512
2018-04-19T05:32:04.959Z,1528
2018-04-19T05:33:04.951Z,1544
2018-04-19T05:34:04.931Z,1560
2018-04-19T05:35:04.914Z,1576
2018-04-19T05:36:04.900Z,1592
2018-04-19T05:37:05.164Z,1608
2018-04-19T05:38:04.881Z,1624
2018-04-19T05:39:05.121Z,1640
2018-04-19T05:40:04.847Z,1652
2018-04-19T05:41:05.115Z,1668
2018-04-19T05:42:05.085Z,1684
2018-04-19T05:43:04.540Z,1700
2018-04-19T05:44:04.531Z,1712
2018-04-19T05:45:04.772Z,1724
2018-04-19T05:46:04.500Z,1744
2018-04-19T05:47:05.021Z,1752
2018-04-19T05:48:04.471Z,1768
2018-04-19T05:49:04.456Z,1780
2018-04-19T05:50:04.723Z,1792
2018-04-19T05:51:04.162Z,1804
2018-04-19T05:52:04.150Z,1820
2018-04-19T05:53:04.396Z,1832
2018-04-19T05:54:04.653Z,1848
2018-04-19T05:55:04.116Z,1860
2018-04-19T05:56:04.900Z,1876
2018-04-19T05:57:04.356Z,1884
2018-04-19T05:58:04.613Z,1900
2018-04-19T05:59:04.586Z,1912
2018-04-19T06:00:04.588Z,1924
2018-04-19T06:01:04.024Z,1932
2018-04-19T06:02:04.275Z,1944
2018-04-19T06:03:04.275Z,1960
2018-04-19T06:04:04.255Z,1976
2018-04-19T06:05:04.783Z,1984
2018-04-19T06:06:04.483Z,1992
2018-04-19T06:07:04.476Z,2008
2018-04-19T06:08:04.727Z,2020
2018-04-19T06:09:04.445Z,2032
2018-04-19T06:10:04.709Z,2048
2018-04-19T06:11:04.417Z,2056
2018-04-19T06:12:04.155Z,2068
2018-04-19T06:13:04.684Z,2084
2018-04-19T06:14:04.117Z,2088
2018-04-19T06:15:03.845Z,2104
2018-04-19T06:16:04.085Z,2116
2018-04-19T06:17:04.073Z,2124
2018-04-19T06:18:04.327Z,2140
2018-04-19T06:19:04.088Z,2148
2018-04-19T06:20:04.578Z,2160
2018-04-19T06:21:03.757Z,2176
2018-04-19T06:22:04.015Z,2184
2018-04-19T06:23:04.272Z,2196
2018-04-19T06:24:04.252Z,2204
2018-04-19T06:25:04.288Z,2220
2018-04-19T06:26:04.222Z,2228
2018-04-19T06:27:03.942Z,2244
2018-04-19T06:28:03.949Z,2252
2018-04-19T06:29:04.451Z,2264
2018-04-19T06:30:04.191Z,2276
2018-04-19T06:31:04.155Z,2288
2018-04-19T06:32:04.139Z,2296
2018-04-19T06:33:03.870Z,2304
2018-04-19T06:34:03.596Z,2316
2018-04-19T06:35:04.107Z,2328
2018-04-19T06:36:04.651Z,2340
2018-04-19T06:37:04.280Z,2348
2018-04-19T06:38:03.808Z,2360
2018-04-19T06:39:04.056Z,2368
2018-04-19T06:40:04.044Z,2376
2018-04-19T06:41:04.025Z,2388
2018-04-19T06:42:04.027Z,2396
2018-04-19T06:43:03.740Z,2408
2018-04-19T06:44:03.989Z,2424
2018-04-19T06:45:04.254Z,2432
2018-04-19T06:46:03.697Z,2436
2018-04-19T06:47:03.689Z,2448
2018-04-19T06:48:03.675Z,2452
2018-04-19T06:49:03.926Z,2464
2018-04-19T06:50:03.382Z,2472
2018-04-19T06:51:03.638Z,2480
2018-04-19T06:52:03.888Z,2488
2018-04-19T06:53:03.350Z,2500
2018-04-19T06:54:03.601Z,2512
2018-04-19T06:55:03.592Z,2516
2018-04-19T06:56:04.112Z,2520
2018-04-19T06:57:03.828Z,2528
2018-04-19T06:58:03.556Z,2536
2018-04-19T06:59:03.547Z,2544
2018-04-19T07:00:03.527Z,2556
2018-04-19T07:01:03.859Z,2568
2018-04-19T07:02:03.508Z,2576
2018-04-19T07:03:03.503Z,2584
2018-04-19T07:04:03.217Z,2596
2018-04-19T07:05:03.737Z,2616
2018-04-19T07:06:03.720Z,2620
2018-04-19T07:07:03.718Z,2636
2018-04-19T07:08:03.430Z,2640
2018-04-19T07:09:03.686Z,2656
2018-04-19T07:10:03.405Z,2660
2018-04-19T07:11:03.665Z,2676
2018-04-19T07:12:03.660Z,2684
2018-04-19T07:13:03.637Z,2692
2018-04-19T07:14:03.900Z,2708
2018-04-19T07:15:03.619Z,2716
2018-04-19T07:16:03.609Z,2724
2018-04-19T07:17:03.076Z,2744
2018-04-19T07:18:03.584Z,2752
2018-04-19T07:19:03.572Z,2768
2018-04-19T07:20:03.566Z,2780
2018-04-19T07:21:03.819Z,2788
2018-04-19T07:22:03.543Z,2804
2018-04-19T07:23:03.544Z,2812
2018-04-19T07:24:03.529Z,2824
2018-04-19T07:25:03.784Z,2836
2018-04-19T07:26:03.243Z,2848
2018-04-19T07:27:03.222Z,2856
2018-04-19T07:28:03.475Z,2876
2018-04-19T07:29:03.202Z,2884
2018-04-19T07:30:03.453Z,2904
2018-04-19T07:31:03.714Z,2916
2018-04-19T07:32:02.927Z,2936
2018-04-19T07:33:02.895Z,2948
2018-04-19T07:34:03.417Z,2960
2018-04-19T07:35:03.404Z,2988
2018-04-19T07:36:03.123Z,3004
2018-04-19T07:37:03.167Z,3012
2018-04-19T07:38:03.368Z,3028
2018-04-19T07:39:03.462Z,3048
2018-04-19T07:40:03.087Z,3056
2018-04-19T07:41:03.119Z,3068
2018-04-19T07:42:03.327Z,3092
2018-04-19T07:43:03.318Z,3100
2018-04-19T07:44:03.589Z,3108
2018-04-19T07:45:03.303Z,3128
2018-04-19T07:46:03.327Z,3144
2018-04-19T07:47:03.283Z,3148
2018-04-19T07:48:03.275Z,3172
2018-04-19T07:49:03.275Z,3180
2018-04-19T07:50:02.991Z,3192
2018-04-19T07:51:03.508Z,3208
2018-04-19T07:52:02.969Z,3224
2018-04-19T07:53:03.221Z,3252
2018-04-19T07:54:03.220Z,3292
2018-04-19T07:55:02.943Z,3340
2018-04-19T07:56:03.466Z,3376
2018-04-19T07:57:02.918Z,3428
2018-04-19T07:58:02.936Z,3504
2018-04-19T07:59:02.905Z,3584
2018-04-19T08:00:03.159Z,3664
2018-04-19T08:01:02.880Z,3748
2018-04-19T08:02:02.875Z,3828
2018-04-19T08:03:02.862Z,3892
2018-04-19T08:04:02.590Z,3944
2018-04-19T08:05:02.851Z,3984
2018-04-19T08:06:02.841Z,4036
2018-04-19T08:07:03.359Z,4088
2018-04-19T08:08:03.092Z,4168
2018-04-19T08:09:03.385Z,4272
2018-04-19T08:10:03.342Z,4360
2018-04-19T08:11:02.525Z,4440
2018-04-19T08:12:03.066Z,20544
2018-04-19T08:13:03.042Z,40192
2018-04-19T08:14:03.038Z,41056
2018-04-19T08:15:03.352Z,35360
2018-04-19T08:16:02.744Z,26016
2018-04-19T08:17:02.746Z,23616
2018-04-19T08:18:03.269Z,13500
2018-04-19T08:19:02.736Z,20544
2018-04-19T08:20:02.720Z,15552
2018-04-19T08:21:02.710Z,21216
2018-04-19T08:22:02.446Z,31936
2018-04-19T08:23:02.969Z,36640
2018-04-19T08:24:02.971Z,41376
2018-04-19T08:25:03.236Z,42272
2018-04-19T08:26:02.957Z,29600
2018-04-19T08:27:02.951Z,20320
2018-04-19T08:28:02.955Z,26144
2018-04-19T08:29:02.675Z,24288
2018-04-19T08:30:02.673Z,31168
2018-04-19T08:31:02.933Z,41408
2018-04-19T08:32:03.186Z,26240
2018-04-19T08:33:02.928Z,10340
2018-04-19T08:34:02.656Z,12212
2018-04-19T08:35:02.923Z,19616
2018-04-19T08:36:02.910Z,33344
2018-04-19T08:37:03.118Z,24128
2018-04-19T08:38:02.911Z,20288
2018-04-19T08:39:02.632Z,25856
2018-04-19T08:40:02.894Z,31072
2018-04-19T08:41:02.625Z,28160
2018-04-19T08:42:02.900Z,33664
2018-04-19T08:43:02.824Z,38976
2018-04-19T08:44:02.359Z,35904
2018-04-19T08:45:03.157Z,29408
2018-04-19T08:46:02.891Z,22976
2018-04-19T08:47:02.874Z,18048
2018-04-19T08:48:02.611Z,17344
2018-04-19T08:49:02.876Z,17824
2018-04-19T08:50:03.141Z,17028
2018-04-19T08:51:02.875Z,15192
2018-04-19T08:52:03.139Z,13520
2018-04-19T08:53:02.866Z,8284
2018-04-19T08:54:02.865Z,6136
2018-04-19T08:55:02.863Z,7760
2018-04-19T08:56:03.123Z,14532
2018-04-19T08:57:02.590Z,17344
2018-04-19T08:58:02.587Z,18848
2018-04-19T08:59:02.585Z,26304
2018-04-19T09:00:03.124Z,16096
2018-04-19T09:01:03.112Z,13556
2018-04-19T09:02:03.112Z,37824
2018-04-19T09:03:02.576Z,22528
2018-04-19T09:04:02.848Z,14960
2018-04-19T09:05:02.846Z,13908
2018-04-19T09:06:03.105Z,12400
2018-04-19T09:07:02.835Z,25920
2018-04-19T09:08:03.262Z,39936
2018-04-19T09:09:02.839Z,46432
2018-04-19T09:10:02.295Z,48032
2018-04-19T09:11:02.821Z,49024
2018-04-19T09:12:02.294Z,46720
2018-04-19T09:13:02.823Z,37824
2018-04-19T09:14:02.552Z,33728
2018-04-19T09:15:02.287Z,26208
2018-04-19T09:16:02.818Z,31104
2018-04-19T09:17:02.555Z,36352
2018-04-19T09:18:02.816Z,14820
2018-04-19T09:19:02.807Z,13844
2018-04-19T09:20:02.812Z,22080
2018-04-19T09:21:02.823Z,43776
2018-04-19T09:22:02.815Z,49632
2018-04-19T09:23:02.922Z,46592
2018-04-19T09:24:02.800Z,34496
2018-04-19T09:25:02.806Z,39104
2018-04-19T09:26:03.072Z,30176
2018-04-19T09:27:02.268Z,30752
2018-04-19T09:28:02.533Z,35072
2018-04-19T09:29:02.790Z,32192
2018-04-19T09:30:02.800Z,39040
2018-04-19T09:31:03.061Z,34048
2018-04-19T09:32:02.538Z,40384
2018-04-19T09:33:02.259Z,35616
2018-04-19T09:34:02.256Z,29312
2018-04-19T09:35:03.099Z,10956
2018-04-19T09:36:02.787Z,13352
2018-04-19T09:37:02.793Z,24928
2018-04-19T09:38:02.784Z,24960
2018-04-19T09:39:02.254Z,20672
2018-04-19T09:40:03.045Z,19488
2018-04-19T09:41:02.551Z,11500
2018-04-19T09:42:02.783Z,6132
2018-04-19T09:43:02.786Z,7572
2018-04-19T09:44:02.781Z,11136
2018-04-19T09:45:02.520Z,14248
2018-04-19T09:46:02.786Z,22336
2018-04-19T09:47:02.248Z,20448
2018-04-19T09:48:03.091Z,14028
2018-04-19T09:49:03.042Z,18208
2018-04-19T09:50:02.769Z,17088
2018-04-19T09:51:03.033Z,21728
2018-04-19T09:52:02.555Z,19552
2018-04-19T09:53:02.495Z,17088
2018-04-19T09:54:03.048Z,18720
2018-04-19T09:55:02.766Z,22208
2018-04-19T09:56:02.758Z,24128
2018-04-19T09:57:03.017Z,22496
2018-04-19T09:58:02.497Z,29184
2018-04-19T09:59:02.751Z,33856
2018-04-19T10:00:02.748Z,26048
2018-04-19T10:01:02.748Z,19904
2018-04-19T10:02:02.484Z,20032
2018-04-19T10:03:02.733Z,31648
2018-04-19T10:04:02.741Z,31872
2018-04-19T10:05:03.007Z,21920
2018-04-19T10:06:02.404Z,19488
2018-04-19T10:07:03.042Z,13312
2018-04-19T10:08:02.466Z,16224
2018-04-19T10:09:02.996Z,13812
2018-04-19T10:10:02.731Z,10032
2018-04-19T10:11:02.777Z,18272
2018-04-19T10:12:02.988Z,15684
2018-04-19T10:13:02.715Z,13944
2018-04-19T10:14:02.719Z,16448
2018-04-19T10:15:02.722Z,17952
2018-04-19T10:16:02.622Z,17472
2018-04-19T10:17:02.447Z,20736
2018-04-19T10:18:02.705Z,28448
2018-04-19T10:19:02.699Z,23968
2018-04-19T10:20:02.458Z,21216
2018-04-19T10:21:02.702Z,27456
2018-04-19T10:22:02.169Z,24256
2018-04-19T10:23:02.698Z,30880
2018-04-19T10:24:02.700Z,26912
2018-04-19T10:25:02.716Z,18816
2018-04-19T10:26:02.697Z,26176
2018-04-19T10:27:02.427Z,23808
2018-04-19T10:28:02.692Z,26336
2018-04-19T10:29:02.434Z,27968
2018-04-19T10:30:03.006Z,24320
2018-04-19T10:31:02.938Z,32896
2018-04-19T10:32:02.946Z,53440
2018-04-19T10:33:02.415Z,50624
2018-04-19T10:34:02.675Z,30400
2018-04-19T10:35:02.409Z,32928
2018-04-19T10:36:02.671Z,27648
2018-04-19T10:37:02.605Z,29600
2018-04-19T10:38:02.677Z,22368
2018-04-19T10:39:02.665Z,33632
2018-04-19T10:40:02.411Z,24672
2018-04-19T10:41:02.662Z,16864
2018-04-19T10:42:02.409Z,33568
2018-04-19T10:43:02.662Z,51808
2018-04-19T10:44:02.917Z,55808
2018-04-19T10:45:02.395Z,49120
2018-04-19T10:46:02.651Z,24736
2018-04-19T10:47:02.436Z,21536
2018-04-19T10:48:02.927Z,24288
2018-04-19T10:49:02.385Z,22592
2018-04-19T10:50:02.919Z,20480
2018-04-19T10:51:02.656Z,35904
2018-04-19T10:52:02.653Z,50368
2018-04-19T10:53:02.702Z,81984
2018-04-19T10:54:02.653Z,83392
2018-04-19T10:55:02.669Z,65760
2018-04-19T10:56:02.920Z,57952
2018-04-19T10:57:02.395Z,46240
2018-04-19T10:58:02.390Z,32960
2018-04-19T10:59:02.666Z,42368
2018-04-19T11:00:02.666Z,64576
2018-04-19T11:01:02.692Z,72416
2018-04-19T11:02:02.404Z,63104
2018-04-19T11:03:02.666Z,60544
2018-04-19T11:04:02.663Z,81472
2018-04-19T11:05:02.137Z,86688
2018-04-19T11:06:02.404Z,89312
2018-04-19T11:07:02.401Z,87136
2018-04-19T11:08:02.942Z,84512
2018-04-19T11:09:02.677Z,81920
2018-04-19T11:10:02.686Z,79648
2018-04-19T11:11:02.157Z,80160
2018-04-19T11:12:02.424Z,80384
2018-04-19T11:13:03.016Z,82080
2018-04-19T11:14:02.708Z,83936
2018-04-19T11:15:02.744Z,83680
2018-04-19T11:16:02.798Z,83072
2018-04-19T11:17:02.996Z,81568
2018-04-19T11:18:02.471Z,82848
2018-04-19T11:19:02.465Z,84640
2018-04-19T11:20:03.002Z,87488
2018-04-19T11:21:03.002Z,90528
2018-04-19T11:22:02.754Z,91808
2018-04-19T11:23:02.756Z,89120
2018-04-19T11:24:02.764Z,85440
2018-04-19T11:25:02.767Z,80704
2018-04-19T11:26:02.247Z,73856
2018-04-19T11:27:02.518Z,70784
2018-04-19T11:28:03.061Z,72448
2018-04-19T11:29:03.076Z,77280
2018-04-19T11:30:02.805Z,84576
2018-04-19T11:31:02.937Z,91936
2018-04-19T11:32:03.095Z,99104
2018-04-19T11:33:02.306Z,101472
2018-04-19T11:34:02.838Z,97216
2018-04-19T11:35:02.843Z,90112
2018-04-19T11:36:02.853Z,85568
2018-04-19T11:37:02.599Z,80320
2018-04-19T11:38:02.611Z,73760
2018-04-19T11:39:02.883Z,70368
2018-04-19T11:40:02.635Z,70528
2018-04-19T11:41:02.908Z,82208
2018-04-19T11:42:02.907Z,88000
2018-04-19T11:43:02.927Z,94432
2018-04-19T11:44:02.397Z,101376
2018-04-19T11:45:02.417Z,106624
2018-04-19T11:46:02.957Z,106976
2018-04-19T11:47:02.699Z,105056
2018-04-19T11:48:02.761Z,104352
2018-04-19T11:49:02.994Z,101504
2018-04-19T11:50:02.721Z,99424
2018-04-19T11:51:03.014Z,99392
2018-04-19T11:52:02.747Z,102304
2018-04-19T11:53:02.748Z,101888
2018-04-19T11:54:03.033Z,97824
2018-04-19T11:55:03.043Z,95168
2018-04-19T11:56:02.786Z,94016
2018-04-19T11:57:02.796Z,92544
2018-04-19T11:58:02.546Z,92864
2018-04-19T11:59:03.345Z,94400
2018-04-19T12:00:02.833Z,98016
2018-04-19T12:01:02.903Z,98432
2018-04-19T12:02:03.146Z,97728
2018-04-19T12:03:02.876Z,99424
2018-04-19T12:04:03.161Z,101888
2018-04-19T12:05:03.159Z,100864
2018-04-19T12:06:03.159Z,98848
2018-04-19T12:07:03.176Z,92864
2018-04-19T12:08:03.456Z,85696
2018-04-19T12:09:03.185Z,80096
2018-04-19T12:10:03.215Z,78176
2018-04-19T12:11:03.477Z,79136
2018-04-19T12:12:03.225Z,82112
2018-04-19T12:13:03.503Z,87808
2018-04-19T12:14:03.511Z,95232
2018-04-19T12:15:02.988Z,98976
2018-04-19T12:16:03.267Z,97344
2018-04-19T12:17:03.275Z,97536
2018-04-19T12:18:03.553Z,98208
2018-04-19T12:19:03.331Z,94880
2018-04-19T12:20:03.060Z,92736
2018-04-19T12:21:03.059Z,93152
2018-04-19T12:22:03.331Z,94496
2018-04-19T12:23:03.351Z,97568
2018-04-19T12:24:03.355Z,103488
2018-04-19T12:25:03.101Z,108064
2018-04-19T12:26:03.647Z,109952
2018-04-19T12:27:03.391Z,107328
2018-04-19T12:28:03.402Z,103168
2018-04-19T12:29:03.408Z,97568
2018-04-19T12:30:02.895Z,92352
2018-04-19T12:31:03.705Z,89952
2018-04-19T12:32:03.441Z,88128
2018-04-19T12:33:03.460Z,86816
2018-04-19T12:34:03.207Z,88320
2018-04-19T12:35:03.213Z,93952
2018-04-19T12:36:03.487Z,97120
2018-04-19T12:37:03.528Z,97088
2018-04-19T12:38:03.518Z,94176
2018-04-19T12:39:03.256Z,91936
2018-04-19T12:40:05.640Z,88704
2018-04-19T12:41:03.551Z,87264
2018-04-19T12:42:03.821Z,84736
2018-04-19T12:43:03.833Z,86880
2018-04-19T12:44:03.573Z,89152
2018-04-19T12:45:03.594Z,87584
2018-04-19T12:46:03.604Z,89344
2018-04-19T12:47:03.609Z,91392
2018-04-19T12:48:03.624Z,94720
2018-04-19T12:49:03.362Z,98240
2018-04-19T12:50:03.654Z,100416
2018-04-19T12:51:03.387Z,103456
2018-04-19T12:52:03.401Z,100352
2018-04-19T12:53:03.413Z,92768
2018-04-19T12:54:03.427Z,85536
2018-04-19T12:55:03.431Z,80416
2018-04-19T12:56:03.445Z,77920
2018-04-19T12:57:03.716Z,78816
2018-04-19T12:58:03.731Z,82400
2018-04-19T12:59:03.474Z,87072
2018-04-19T13:00:03.482Z,91456
2018-04-19T13:01:03.759Z,92928
2018-04-19T13:02:03.773Z,92160
2018-04-19T13:03:03.775Z,88512
2018-04-19T13:04:03.792Z,84896
2018-04-19T13:05:03.797Z,84544
2018-04-19T13:06:03.809Z,84192
2018-04-19T13:07:03.818Z,85696
2018-04-19T13:08:03.831Z,88352
2018-04-19T13:09:03.577Z,93600
2018-04-19T13:10:03.859Z,94624
2018-04-19T13:11:04.133Z,92960
2018-04-19T13:12:04.147Z,91584
2018-04-19T13:13:04.237Z,90624
2018-04-19T13:14:03.623Z,89728
2018-04-19T13:15:03.907Z,86624
2018-04-19T13:16:04.169Z,81408
2018-04-19T13:17:03.914Z,73536
2018-04-19T13:18:04.215Z,68352
2018-04-19T13:19:03.950Z,67040
2018-04-19T13:20:03.950Z,68768
2018-04-19T13:21:03.970Z,74304
2018-04-19T13:22:03.698Z,79648
2018-04-19T13:23:03.716Z,85696
2018-04-19T13:24:03.723Z,90592
2018-04-19T13:25:03.999Z,91584
2018-04-19T13:26:04.028Z,92288
2018-04-19T13:27:03.748Z,89120
2018-04-19T13:28:03.761Z,82560
2018-04-19T13:29:04.045Z,75744
2018-04-19T13:30:03.513Z,69376
2018-04-19T13:31:03.789Z,64128
2018-04-19T13:32:04.327Z,64704
2018-04-19T13:33:04.077Z,70336
2018-04-19T13:34:04.180Z,74816